This is the latest recevied weather packets stored in our database for station/object SQ2ODE-13. If no packets are shown the sender has not sent any weather packets the latest 10 day(s).
| Time | Temp. | Humidity | Pressure | Rain* | Wind** | Luminosity | Snow |
|---|---|---|---|---|---|---|---|
| 1777101979 | 10° C | 76% | 1003.9 hPa | 0 mm | - | - | - |
| 1777100772 | 10° C | 76% | 1003.9 hPa | 0 mm | - | - | - |
| 1777097721 | 9.44° C | 81% | 1004.3 hPa | 0 mm | - | - | - |
| 1777096571 | 9.44° C | 82% | 1004.2 hPa | 0 mm | - | - | - |
| 1777093545 | 8.33° C | 87% | 1004.6 hPa | 0 mm | - | - | - |
| 1777089975 | 7.78° C | 88% | 1004.9 hPa | 0 mm | - | - | - |
| 1777083942 | 7.78° C | 82% | 1005.7 hPa | 0 mm | - | - | - |
| 1777080957 | 7.78° C | 79% | 1006 hPa | 0 mm | - | - | - |
| 1777079747 | 8.33° C | 76% | 1006 hPa | 0 mm | - | - | - |
| 1777079161 | 8.33° C | 75% | 1006.1 hPa | 0 mm | - | - | - |
| 1777077931 | 8.89° C | 73% | 1006.3 hPa | 0 mm | - | - | - |
| 1777077326 | 8.89° C | 73% | 1006.4 hPa | 0 mm | - | - | - |
| 1777071939 | 9.44° C | 65% | 1007.5 hPa | 0 mm | - | - | - |
| 1777070731 | 10° C | 64% | 1007.5 hPa | 0 mm | - | - | - |
| 1777066584 | 11.11° C | 60% | 1008.1 hPa | 0 mm | - | - | - |
| 1777064753 | 11.67° C | 57% | 1008.1 hPa | 0 mm | - | - | - |
| 1777060524 | 12.22° C | 53% | 1008.5 hPa | 0 mm | - | - | - |
| 1777057564 | 12.78° C | 51% | 1008.6 hPa | 0 mm | - | - | - |
| 1777050921 | 16.67° C | 38% | 1007.7 hPa | 0 mm | - | - | - |
| 1777043734 | 17.22° C | 34% | 1008.1 hPa | 0 mm | - | - | - |
| 1777041318 | 17.78° C | 32% | 1008.2 hPa | 0 mm | - | - | - |
| 1777039587 | 17.78° C | 32% | 1008.3 hPa | 0 mm | - | - | - |
| 1777037780 | 17.78° C | 29% | 1008.4 hPa | 0 mm | - | - | - |
| 1777037151 | 19.44° C | 27% | 1008.4 hPa | 0 mm | - | - | - |
| 1777033527 | 18.33° C | 31% | 1008.7 hPa | 0 mm | - | - | - |
* Rain latest hour (hover to see other rain measurements)
** Current wind speed in m/s (hover to see current wind gust speed)